メインページ
METAR-TAF:

METAR-TAF

空港 :

上海浦東国際空港

上海浦東, 中華人民共和国

緯度: 31-07N, 経度: 121-46E, 海抜: 4m

現時点の気象観測

当レポートは35分前の23:30(UTC)に作成
南東の風 12kt
気温 28°C
湿度 84%
気圧 1010 hPa
視程10km以上
高度1000ftの雲は散在している

METAR: ZSPD 162330Z 14006MPS 9999 SCT010 28/25 Q1010 NOSIG

時間: 08:05 (00:05 UTC)

予報

当レポートは2時間55分前の21:10(UTC)に作成
予報は17日の 00時(UTC)から 17日の 24時(UTC)まで有効
南/南東の風 10kt
視程: 6000m
高度2000ftの雲は散在している

TAF: ZSPD 162110Z 1700/1724 15005MPS 6000 SCT020 TX33/1706Z TN26/1721Z

4,000以上の空港の気象観測と天気予報(METAR報とTAF報)

利用可能な観測所は地図上に黄色い丸と赤い丸で示す。

丸の上にカーソルを重ねると観測所名を参照できる。

次にクリックすると気象観測と天気予報を参照できる。

マップの切り替え:黒色「×」印の緑ボタンをクリックして拡大、「-」印の緑ボタンをクリックして縮小、緑色の三角印をクリックして隣りの地図に切り替え


METAR-TAF: